createdAt,value
2023-05-08T00:00:20.582Z,6.76
2023-05-08T00:01:20.623Z,6.62
2023-05-08T00:02:20.720Z,6.84
2023-05-08T00:03:20.807Z,7.28
2023-05-08T00:04:20.834Z,7.00
2023-05-08T00:05:20.765Z,6.74
2023-05-08T00:06:20.821Z,6.40
2023-05-08T00:07:20.872Z,7.00
2023-05-08T00:08:20.980Z,7.28
2023-05-08T00:09:20.926Z,7.04
2023-05-08T00:10:21.001Z,7.27
2023-05-08T00:11:20.978Z,6.93
2023-05-08T00:12:21.073Z,6.70
2023-05-08T00:13:21.265Z,6.41
2023-05-08T00:14:21.100Z,6.60
2023-05-08T00:15:21.107Z,6.49
2023-05-08T00:16:21.190Z,6.42
2023-05-08T00:17:21.225Z,6.68
2023-05-08T00:18:21.238Z,6.81
2023-05-08T00:19:21.291Z,7.01
2023-05-08T00:20:21.275Z,6.57
2023-05-08T00:21:21.400Z,6.38
2023-05-08T00:22:21.350Z,6.45
2023-05-08T00:23:21.392Z,6.59
2023-05-08T00:24:21.424Z,6.55
2023-05-08T00:25:21.449Z,6.53
2023-05-08T00:26:21.503Z,6.49
2023-05-08T00:27:21.528Z,6.85
2023-05-08T00:28:21.563Z,6.97
2023-05-08T00:29:21.605Z,6.60
2023-05-08T00:30:21.634Z,6.37
2023-05-08T00:31:21.651Z,6.26
2023-05-08T00:32:21.840Z,6.56
2023-05-08T00:33:21.761Z,6.83
2023-05-08T00:34:21.809Z,6.53
2023-05-08T00:35:21.849Z,6.57
2023-05-08T00:36:21.858Z,6.64
2023-05-08T00:37:22.907Z,6.54
2023-05-08T00:38:22.007Z,6.97
2023-05-08T00:39:22.060Z,6.87
2023-05-08T00:40:22.217Z,6.91
2023-05-08T00:41:22.155Z,6.97
2023-05-08T00:42:22.209Z,7.04
2023-05-08T00:43:22.243Z,6.83
2023-05-08T00:44:22.269Z,6.83
2023-05-08T00:45:22.330Z,6.67
2023-05-08T00:46:22.420Z,7.02
2023-05-08T00:47:22.419Z,6.86
2023-05-08T00:48:22.422Z,6.55
2023-05-08T00:49:22.500Z,6.54
2023-05-08T00:50:22.530Z,6.49
2023-05-08T00:51:22.569Z,6.50
2023-05-08T00:52:22.633Z,6.62
2023-05-08T00:53:22.729Z,7.25
2023-05-08T00:54:23.396Z,6.85
2023-05-08T00:55:22.792Z,7.03
2023-05-08T00:56:22.826Z,6.64
2023-05-08T00:57:22.876Z,6.63
2023-05-08T00:58:22.948Z,6.86
2023-05-08T00:59:22.986Z,6.96
2023-05-08T01:00:23.032Z,6.79
2023-05-08T01:01:23.085Z,6.87
2023-05-08T01:02:23.161Z,7.19
2023-05-08T01:03:23.230Z,7.25
2023-05-08T01:04:23.186Z,7.23
2023-05-08T01:05:23.236Z,6.94
2023-05-08T01:06:23.925Z,7.07
2023-05-08T01:07:23.314Z,7.43
2023-05-08T01:08:23.345Z,7.10
2023-05-08T01:09:23.400Z,7.20
2023-05-08T01:10:23.448Z,7.55
2023-05-08T01:11:23.492Z,7.27
2023-05-08T01:12:23.516Z,7.23
2023-05-08T01:13:23.649Z,7.39
2023-05-08T01:14:23.585Z,7.71
2023-05-08T01:15:23.636Z,7.40
2023-05-08T01:16:23.802Z,7.24
2023-05-08T01:17:23.732Z,6.99
2023-05-08T01:18:23.753Z,7.59
2023-05-08T01:19:23.817Z,7.54
2023-05-08T01:20:23.844Z,7.39
2023-05-08T01:21:23.868Z,6.98
2023-05-08T01:22:23.919Z,6.95
2023-05-08T01:23:23.950Z,7.17
2023-05-08T01:24:23.981Z,7.54
2023-05-08T01:25:24.094Z,7.56
2023-05-08T01:26:24.092Z,7.62
2023-05-08T01:27:24.162Z,7.57
2023-05-08T01:28:24.226Z,6.92
2023-05-08T01:29:24.288Z,6.90
2023-05-08T01:30:24.358Z,7.15
2023-05-08T01:31:24.362Z,7.23
2023-05-08T01:32:24.474Z,7.41
2023-05-08T01:33:24.521Z,7.66
2023-05-08T01:34:24.527Z,7.92
2023-05-08T01:35:24.592Z,7.70
2023-05-08T01:36:24.687Z,7.46
2023-05-08T01:37:24.774Z,7.44
2023-05-08T01:38:24.856Z,7.73
2023-05-08T01:39:24.895Z,7.45
2023-05-08T01:40:24.912Z,8.02
2023-05-08T01:41:25.001Z,7.80
2023-05-08T01:42:25.018Z,7.10
2023-05-08T01:43:25.057Z,7.57
2023-05-08T01:44:25.188Z,7.57
2023-05-08T01:45:25.184Z,7.63
2023-05-08T01:46:25.242Z,7.98
2023-05-08T01:47:25.254Z,8.09
2023-05-08T01:48:25.284Z,7.79
2023-05-08T01:49:25.298Z,7.94
2023-05-08T01:50:25.371Z,8.27
2023-05-08T01:51:25.418Z,8.15
2023-05-08T01:52:25.484Z,8.12
2023-05-08T01:53:25.538Z,8.25
2023-05-08T01:54:25.559Z,8.32
2023-05-08T01:55:25.596Z,8.27
2023-05-08T01:56:25.624Z,8.53
2023-05-08T01:57:25.672Z,8.12
2023-05-08T01:58:25.734Z,7.88
2023-05-08T01:59:25.778Z,8.36
2023-05-08T02:00:25.817Z,8.41
2023-05-08T02:01:26.144Z,8.65
2023-05-08T02:02:25.978Z,8.36
2023-05-08T02:03:26.028Z,8.02
2023-05-08T02:04:26.386Z,7.99
2023-05-08T02:05:26.428Z,8.41
2023-05-08T02:06:26.120Z,8.64
2023-05-08T02:07:26.201Z,8.34
2023-05-08T02:08:26.259Z,8.05
2023-05-08T02:09:26.302Z,8.14
2023-05-08T02:10:26.339Z,8.14
2023-05-08T02:11:26.405Z,8.18
2023-05-08T02:12:26.446Z,8.27
2023-05-08T02:13:26.523Z,8.21
2023-05-08T02:14:26.519Z,8.03
2023-05-08T02:15:26.595Z,8.23
2023-05-08T02:16:26.665Z,8.33
2023-05-08T02:17:26.732Z,7.85
2023-05-08T02:18:26.704Z,8.36
2023-05-08T02:19:26.795Z,8.15
2023-05-08T02:20:26.878Z,8.71
2023-05-08T02:21:26.945Z,8.76
2023-05-08T02:22:27.021Z,8.66
2023-05-08T02:23:27.071Z,8.94
2023-05-08T02:24:27.102Z,8.84
2023-05-08T02:25:27.145Z,8.68
2023-05-08T02:26:27.188Z,8.89
2023-05-08T02:27:27.273Z,8.88
2023-05-08T02:28:27.359Z,8.84
2023-05-08T02:29:27.397Z,8.55
2023-05-08T02:30:27.481Z,8.74
2023-05-08T02:31:27.557Z,8.97
2023-05-08T02:32:27.560Z,8.83
2023-05-08T02:33:27.628Z,8.56
2023-05-08T02:34:27.674Z,8.92
2023-05-08T02:35:27.734Z,8.76
2023-05-08T02:36:27.802Z,8.89
2023-05-08T02:37:27.832Z,8.76
2023-05-08T02:38:27.890Z,8.84
2023-05-08T02:39:27.949Z,8.89
2023-05-08T02:40:27.986Z,9.07
2023-05-08T02:41:28.077Z,8.89
2023-05-08T02:42:28.101Z,8.97
2023-05-08T02:43:28.179Z,8.78
2023-05-08T02:44:28.292Z,8.89
2023-05-08T02:45:28.280Z,9.00
2023-05-08T02:46:28.411Z,8.98
2023-05-08T02:47:28.596Z,8.77
2023-05-08T02:48:28.509Z,9.31
2023-05-08T02:49:28.568Z,8.51
2023-05-08T02:50:28.637Z,9.13
2023-05-08T02:51:28.671Z,9.07
2023-05-08T02:52:28.714Z,9.13
2023-05-08T02:53:28.771Z,8.93
2023-05-08T02:54:28.843Z,9.00
2023-05-08T02:55:28.882Z,9.13
2023-05-08T02:56:28.937Z,9.13
2023-05-08T02:57:29.016Z,9.25
2023-05-08T02:58:29.477Z,9.46
2023-05-08T02:59:29.082Z,9.77
2023-05-08T03:00:29.143Z,9.23
2023-05-08T03:01:29.236Z,9.58
2023-05-08T03:02:29.320Z,9.88
2023-05-08T03:03:29.389Z,9.78
2023-05-08T03:04:29.366Z,9.53
2023-05-08T03:05:29.385Z,9.95
2023-05-08T03:06:29.456Z,10.01
2023-05-08T03:07:29.479Z,9.58
2023-05-08T03:08:29.508Z,9.45
2023-05-08T03:09:29.560Z,9.98
2023-05-08T03:10:29.581Z,9.84
2023-05-08T03:11:29.635Z,9.94
2023-05-08T03:12:29.653Z,10.03
2023-05-08T03:13:29.837Z,9.86
2023-05-08T03:14:29.748Z,10.00
2023-05-08T03:15:29.786Z,9.90
2023-05-08T03:16:29.991Z,10.47
2023-05-08T03:17:29.890Z,10.11
2023-05-08T03:18:29.953Z,9.75
2023-05-08T03:19:29.976Z,10.44
2023-05-08T03:20:30.026Z,10.35
2023-05-08T03:21:30.016Z,10.19
2023-05-08T03:22:30.080Z,9.98
2023-05-08T03:23:30.141Z,9.92
2023-05-08T03:24:30.165Z,9.55
2023-05-08T03:25:30.167Z,10.06
2023-05-08T03:26:30.207Z,9.96
2023-05-08T03:27:30.246Z,9.79
2023-05-08T03:28:30.345Z,10.02
2023-05-08T03:29:30.369Z,9.86
2023-05-08T03:30:30.426Z,10.11
2023-05-08T03:31:30.474Z,9.82
2023-05-08T03:32:30.540Z,9.62
2023-05-08T03:33:30.519Z,10.08
2023-05-08T03:34:30.598Z,10.15
2023-05-08T03:35:30.622Z,9.92
2023-05-08T03:36:30.638Z,9.92
2023-05-08T03:37:30.675Z,9.92
2023-05-08T03:38:30.754Z,10.10
2023-05-08T03:39:30.828Z,10.44
2023-05-08T03:40:30.864Z,9.83
2023-05-08T03:41:30.922Z,9.74
2023-05-08T03:42:30.966Z,9.77
2023-05-08T03:43:31.025Z,9.91
2023-05-08T03:44:31.164Z,10.08
2023-05-08T03:45:31.182Z,10.20
2023-05-08T03:46:31.255Z,10.23
2023-05-08T03:47:31.302Z,10.01
2023-05-08T03:48:31.339Z,10.37
2023-05-08T03:49:31.464Z,10.47
2023-05-08T03:50:31.407Z,10.12
2023-05-08T03:51:31.448Z,10.39
2023-05-08T03:52:31.487Z,10.02
2023-05-08T03:53:31.535Z,10.19
2023-05-08T03:54:31.544Z,10.59
2023-05-08T03:55:31.585Z,10.87
2023-05-08T03:56:31.642Z,10.14
2023-05-08T03:57:31.654Z,10.21
2023-05-08T03:58:31.704Z,10.45
2023-05-08T03:59:31.761Z,10.54
2023-05-08T04:00:31.755Z,10.62
2023-05-08T04:01:31.858Z,10.80
2023-05-08T04:02:32.010Z,10.15
2023-05-08T04:03:31.995Z,10.40
2023-05-08T04:04:31.959Z,10.29
2023-05-08T04:05:32.000Z,10.56
2023-05-08T04:06:42.048Z,10.34
2023-05-08T04:07:33.061Z,10.35
2023-05-08T04:08:32.049Z,10.39
2023-05-08T04:09:32.076Z,10.40
2023-05-08T04:10:32.111Z,10.17
2023-05-08T04:11:32.098Z,10.17
2023-05-08T04:12:32.114Z,10.09
2023-05-08T04:13:32.214Z,10.32
2023-05-08T04:14:32.150Z,9.95
2023-05-08T04:15:32.164Z,10.31
2023-05-08T04:16:32.209Z,10.68
2023-05-08T04:17:32.252Z,10.21
2023-05-08T04:18:32.210Z,10.04
2023-05-08T04:19:32.208Z,9.88
2023-05-08T04:20:32.211Z,10.16
2023-05-08T04:21:32.229Z,9.80
2023-05-08T04:22:32.255Z,9.99
2023-05-08T04:23:32.268Z,10.20
2023-05-08T04:24:32.324Z,10.17
2023-05-08T04:25:32.346Z,10.01
2023-05-08T04:26:32.418Z,10.26
2023-05-08T04:27:32.445Z,10.31
2023-05-08T04:28:32.488Z,10.34
2023-05-08T04:29:32.524Z,10.19
2023-05-08T04:30:32.568Z,10.17
2023-05-08T04:31:32.646Z,9.95
2023-05-08T04:32:32.675Z,9.99
2023-05-08T04:33:32.692Z,9.83
2023-05-08T04:34:32.717Z,9.48
2023-05-08T04:35:32.734Z,9.91
2023-05-08T04:36:32.760Z,10.00
2023-05-08T04:37:32.841Z,10.08
2023-05-08T04:38:32.863Z,9.95
2023-05-08T04:39:32.931Z,9.82
2023-05-08T04:40:32.963Z,10.33
2023-05-08T04:41:33.039Z,9.86
2023-05-08T04:42:33.041Z,9.92
2023-05-08T04:43:33.086Z,9.87
2023-05-08T04:44:33.142Z,10.07
2023-05-08T04:45:33.162Z,10.03
2023-05-08T04:46:33.271Z,10.12
2023-05-08T04:47:33.240Z,10.25
2023-05-08T04:48:33.309Z,10.08
2023-05-08T04:49:33.381Z,9.94
2023-05-08T04:50:33.453Z,9.88
2023-05-08T04:51:33.538Z,10.22
2023-05-08T04:52:33.594Z,10.31
2023-05-08T04:53:33.658Z,10.35
2023-05-08T04:54:33.743Z,10.15
2023-05-08T04:55:33.793Z,10.36
2023-05-08T04:56:33.935Z,10.42
2023-05-08T04:57:33.913Z,10.09
2023-05-08T04:58:33.959Z,10.34
2023-05-08T04:59:34.024Z,10.23
2023-05-08T05:00:34.042Z,10.06
2023-05-08T05:01:42.683Z,10.27
2023-05-08T05:02:34.382Z,10.31
2023-05-08T05:03:34.374Z,10.41
2023-05-08T05:04:34.419Z,10.54
2023-05-08T05:05:35.002Z,10.52
2023-05-08T05:06:34.529Z,10.74
2023-05-08T05:07:34.632Z,10.70
2023-05-08T05:08:34.698Z,10.42
2023-05-08T05:09:34.687Z,10.15
2023-05-08T05:10:34.743Z,10.33
2023-05-08T05:11:34.814Z,10.37
2023-05-08T05:12:34.859Z,10.38
2023-05-08T05:13:34.958Z,10.67
2023-05-08T05:14:35.032Z,10.49
2023-05-08T05:15:35.084Z,10.50
2023-05-08T05:16:35.308Z,10.26
2023-05-08T05:17:35.288Z,10.61
2023-05-08T05:18:35.369Z,10.70
2023-05-08T05:19:35.388Z,10.70
2023-05-08T05:20:35.469Z,10.77
2023-05-08T05:21:35.495Z,11.03
2023-05-08T05:22:35.492Z,11.43
2023-05-08T05:23:35.524Z,11.44
2023-05-08T05:24:35.647Z,11.25
2023-05-08T05:25:35.674Z,11.07
2023-05-08T05:26:36.862Z,11.24
2023-05-08T05:27:35.791Z,11.75
2023-05-08T05:28:35.920Z,11.40
2023-05-08T05:29:36.026Z,11.52
2023-05-08T05:30:35.979Z,11.28
2023-05-08T05:31:36.034Z,11.04
2023-05-08T05:32:36.104Z,11.21
2023-05-08T05:33:36.569Z,12.05
2023-05-08T05:34:36.201Z,11.75
2023-05-08T05:35:36.287Z,13.74
2023-05-08T05:36:36.302Z,13.85
2023-05-08T05:37:36.419Z,14.54
2023-05-08T05:38:36.423Z,14.85
2023-05-08T05:39:36.473Z,15.72
2023-05-08T05:40:38.135Z,17.28
2023-05-08T05:41:36.630Z,17.98
2023-05-08T05:42:36.639Z,17.61
2023-05-08T05:43:37.052Z,18.98
2023-05-08T05:44:36.663Z,19.18
2023-05-08T05:45:43.819Z,19.83
2023-05-08T05:46:36.825Z,19.89
2023-05-08T05:47:36.847Z,20.28
2023-05-08T05:48:37.093Z,21.59
2023-05-08T05:49:36.840Z,24.71
2023-05-08T05:50:36.816Z,30.92
2023-05-08T05:51:36.848Z,34.38
2023-05-08T05:52:36.848Z,35.08
2023-05-08T05:53:36.902Z,36.05
2023-05-08T05:54:36.975Z,39.73
2023-05-08T05:55:36.933Z,39.84
2023-05-08T05:56:36.917Z,39.72
2023-05-08T05:57:38.640Z,41.47
2023-05-08T05:58:36.994Z,44.04
2023-05-08T05:59:37.108Z,43.99
2023-05-08T06:00:37.074Z,43.81
2023-05-08T06:01:37.028Z,45.08
2023-05-08T06:02:37.224Z,44.74
2023-05-08T06:03:37.147Z,46.18
2023-05-08T06:04:37.264Z,47.25
2023-05-08T06:05:37.052Z,47.21
2023-05-08T06:06:37.087Z,48.94
2023-05-08T06:07:37.104Z,51.05
2023-05-08T06:08:37.105Z,50.50
2023-05-08T06:09:37.601Z,51.18
2023-05-08T06:10:37.133Z,52.52
2023-05-08T06:11:37.230Z,52.08
2023-05-08T06:12:37.162Z,43.95
2023-05-08T06:13:37.156Z,39.65
2023-05-08T06:14:37.156Z,34.90
2023-05-08T06:15:37.183Z,33.30
2023-05-08T06:16:37.326Z,29.79
2023-05-08T06:17:37.246Z,26.58
2023-05-08T06:18:37.278Z,24.66
2023-05-08T06:19:37.586Z,24.10
2023-05-08T06:20:37.340Z,24.90
2023-05-08T06:21:37.399Z,27.99
2023-05-08T06:22:37.446Z,27.60
2023-05-08T06:23:37.519Z,24.69
2023-05-08T06:24:37.557Z,24.10
2023-05-08T06:25:37.633Z,24.23
2023-05-08T06:26:37.682Z,22.50
2023-05-08T06:27:37.807Z,23.00
2023-05-08T06:28:37.820Z,22.30
2023-05-08T06:29:37.858Z,21.20
2023-05-08T06:30:37.968Z,20.73
2023-05-08T06:31:38.094Z,21.71
2023-05-08T06:32:38.132Z,22.48
2023-05-08T06:33:38.108Z,23.05
2023-05-08T06:34:38.615Z,22.24
2023-05-08T06:35:38.237Z,22.45
2023-05-08T06:36:38.334Z,23.39
2023-05-08T06:37:38.400Z,21.41
2023-05-08T06:38:38.455Z,19.20
2023-05-08T06:39:38.616Z,18.05
2023-05-08T06:40:38.523Z,17.93
2023-05-08T06:41:38.612Z,18.16
2023-05-08T06:42:38.595Z,20.62
2023-05-08T06:43:38.649Z,23.44
2023-05-08T06:44:38.687Z,24.93
2023-05-08T06:45:38.771Z,26.34
2023-05-08T06:46:38.851Z,27.32
2023-05-08T06:47:38.859Z,29.42
2023-05-08T06:48:38.962Z,31.00
2023-05-08T06:49:38.990Z,32.84
2023-05-08T06:50:39.069Z,33.89
2023-05-08T06:51:40.037Z,35.37
2023-05-08T06:52:39.296Z,36.27
2023-05-08T06:53:40.246Z,36.33
2023-05-08T06:54:39.213Z,36.57
2023-05-08T06:55:39.292Z,37.11
2023-05-08T06:56:39.183Z,37.96
2023-05-08T06:57:39.257Z,40.19
2023-05-08T06:58:39.236Z,39.78
2023-05-08T06:59:39.685Z,39.02
2023-05-08T07:00:39.274Z,40.64
2023-05-08T07:01:39.312Z,40.35
2023-05-08T07:02:39.291Z,39.89
2023-05-08T07:03:39.289Z,41.69
2023-05-08T07:04:39.422Z,42.05
2023-05-08T07:05:39.425Z,43.01
2023-05-08T07:06:39.422Z,41.64
2023-05-08T07:07:39.460Z,43.20
2023-05-08T07:08:39.499Z,43.70
2023-05-08T07:09:39.656Z,42.62
2023-05-08T07:10:39.560Z,42.98
2023-05-08T07:11:39.639Z,44.22
2023-05-08T07:12:39.636Z,45.01
2023-05-08T07:13:39.622Z,44.80
2023-05-08T07:14:39.685Z,46.22
2023-05-08T07:15:39.677Z,45.77
2023-05-08T07:16:39.802Z,45.18
2023-05-08T07:17:39.918Z,47.05
2023-05-08T07:18:39.772Z,45.72
2023-05-08T07:19:39.827Z,46.20
2023-05-08T07:20:40.671Z,44.36
2023-05-08T07:21:39.876Z,44.30
2023-05-08T07:22:39.959Z,45.42
2023-05-08T07:23:39.966Z,45.78
2023-05-08T07:24:40.113Z,44.83
2023-05-08T07:25:40.036Z,44.88
2023-05-08T07:26:40.064Z,44.83
2023-05-08T07:27:40.100Z,45.39
2023-05-08T07:28:40.144Z,45.01
2023-05-08T07:29:40.192Z,45.09
2023-05-08T07:30:40.171Z,45.59
2023-05-08T07:31:40.232Z,45.02
2023-05-08T07:32:40.255Z,39.45
2023-05-08T07:33:40.294Z,31.84
2023-05-08T07:34:40.643Z,23.65
2023-05-08T07:35:40.416Z,20.48
2023-05-08T07:36:40.467Z,19.62
2023-05-08T07:37:40.526Z,16.02
2023-05-08T07:38:40.562Z,12.80
2023-05-08T07:39:40.650Z,12.54
2023-05-08T07:40:40.725Z,11.54
2023-05-08T07:41:40.980Z,11.08
2023-05-08T07:42:40.837Z,11.68
2023-05-08T07:43:40.898Z,13.83
2023-05-08T07:44:51.023Z,15.66
2023-05-08T07:45:41.995Z,15.71
2023-05-08T07:46:41.039Z,16.02
2023-05-08T07:47:41.068Z,16.83
2023-05-08T07:48:41.029Z,19.11
2023-05-08T07:49:41.111Z,23.54
2023-05-08T07:50:41.074Z,24.29
2023-05-08T07:51:41.099Z,25.63
2023-05-08T07:52:41.192Z,26.60
2023-05-08T07:53:41.133Z,26.29
2023-05-08T07:54:41.652Z,27.56
2023-05-08T07:55:41.184Z,28.28
2023-05-08T07:56:41.217Z,27.62
2023-05-08T07:57:41.193Z,28.39
2023-05-08T07:58:41.264Z,28.23
2023-05-08T07:59:41.286Z,29.48
2023-05-08T08:00:41.617Z,30.81
2023-05-08T08:01:41.418Z,29.89
2023-05-08T08:02:41.557Z,30.23
2023-05-08T08:03:41.514Z,31.15
2023-05-08T08:04:41.513Z,32.25
2023-05-08T08:05:41.665Z,32.50
2023-05-08T08:06:41.682Z,33.73
2023-05-08T08:07:41.686Z,34.46
2023-05-08T08:08:41.770Z,34.52
2023-05-08T08:09:41.806Z,34.13
2023-05-08T08:10:41.782Z,28.45
2023-05-08T08:11:41.801Z,24.64
2023-05-08T08:12:41.898Z,25.43
2023-05-08T08:13:41.916Z,25.84
2023-05-08T08:14:41.924Z,27.59
2023-05-08T08:15:41.967Z,28.96
2023-05-08T08:16:42.039Z,30.04
2023-05-08T08:17:42.040Z,30.51
2023-05-08T08:18:42.067Z,30.76
2023-05-08T08:19:42.096Z,30.34
2023-05-08T08:20:42.126Z,30.55
2023-05-08T08:21:42.206Z,31.44
2023-05-08T08:22:42.207Z,31.96
2023-05-08T08:23:42.223Z,31.52
2023-05-08T08:24:42.369Z,31.81
2023-05-08T08:25:42.274Z,31.88
2023-05-08T08:26:42.323Z,31.55
2023-05-08T08:27:42.356Z,31.97
2023-05-08T08:28:42.428Z,33.50
2023-05-08T08:29:42.456Z,32.87
2023-05-08T08:30:42.694Z,34.04
2023-05-08T08:31:42.657Z,32.25
2023-05-08T08:32:42.632Z,33.51
2023-05-08T08:33:42.610Z,31.84
2023-05-08T08:34:42.633Z,33.51
2023-05-08T08:35:42.619Z,23.09
2023-05-08T08:36:42.693Z,12.34
2023-05-08T08:37:42.724Z,8.45
2023-05-08T08:38:42.776Z,6.66
2023-05-08T08:39:42.906Z,6.82
2023-05-08T08:40:42.984Z,7.16
2023-05-08T08:41:42.980Z,6.64
2023-05-08T08:42:43.050Z,5.32
2023-05-08T08:43:43.096Z,4.77
2023-05-08T08:44:43.213Z,4.60
2023-05-08T08:45:43.265Z,5.04
2023-05-08T08:46:43.349Z,5.18
2023-05-08T08:47:43.402Z,5.10
2023-05-08T08:48:43.447Z,5.10
2023-05-08T08:49:43.500Z,5.17
2023-05-08T08:50:43.569Z,5.44
2023-05-08T08:51:43.628Z,5.82
2023-05-08T08:52:43.699Z,6.17
2023-05-08T08:53:43.749Z,6.42
2023-05-08T08:54:43.914Z,6.78
2023-05-08T08:55:44.175Z,7.45
2023-05-08T08:56:44.163Z,8.14
2023-05-08T08:57:44.062Z,8.93
2023-05-08T08:58:44.205Z,10.37
2023-05-08T08:59:44.315Z,11.35
2023-05-08T09:00:44.385Z,12.08
2023-05-08T09:01:44.439Z,12.61
2023-05-08T09:02:44.526Z,12.35
2023-05-08T09:03:46.039Z,12.37
2023-05-08T09:04:44.468Z,11.59
2023-05-08T09:05:44.545Z,11.40
2023-05-08T09:06:44.554Z,11.56
2023-05-08T09:07:44.545Z,11.59
2023-05-08T09:08:44.591Z,11.86
2023-05-08T09:09:44.608Z,13.39
2023-05-08T09:10:44.632Z,14.23
2023-05-08T09:11:44.674Z,13.24
2023-05-08T09:12:44.840Z,13.58
2023-05-08T09:13:44.709Z,15.11
2023-05-08T09:14:44.727Z,15.81
2023-05-08T09:15:45.157Z,16.43
2023-05-08T09:16:44.910Z,16.70
2023-05-08T09:17:44.861Z,17.39
2023-05-08T09:18:44.830Z,17.55
2023-05-08T09:19:45.581Z,18.26
2023-05-08T09:20:44.858Z,19.40
2023-05-08T09:21:45.212Z,19.01
2023-05-08T09:22:44.874Z,19.43
2023-05-08T09:23:44.878Z,19.46
2023-05-08T09:24:44.923Z,19.67
2023-05-08T09:25:45.001Z,20.54
2023-05-08T09:26:44.948Z,19.52
2023-05-08T09:27:44.986Z,20.50
2023-05-08T09:28:45.050Z,20.05
2023-05-08T09:29:44.998Z,19.92
2023-05-08T09:30:45.042Z,20.40
2023-05-08T09:31:45.058Z,21.56
2023-05-08T09:32:45.096Z,20.39
2023-05-08T09:33:45.065Z,20.80
2023-05-08T09:34:45.073Z,21.66
2023-05-08T09:35:45.104Z,21.91
2023-05-08T09:36:45.170Z,22.11
2023-05-08T09:37:45.104Z,22.77
2023-05-08T09:38:45.161Z,23.49
2023-05-08T09:39:45.176Z,23.74
2023-05-08T09:40:45.191Z,23.88
2023-05-08T09:41:45.147Z,20.18
2023-05-08T09:42:45.215Z,16.38
2023-05-08T09:43:45.185Z,11.70
2023-05-08T09:44:45.284Z,8.91
2023-05-08T09:45:45.261Z,8.32
2023-05-08T09:46:45.254Z,11.20
2023-05-08T09:47:45.297Z,13.86
2023-05-08T09:48:45.266Z,13.51
2023-05-08T09:49:45.299Z,14.56
2023-05-08T09:50:45.352Z,15.06
2023-05-08T09:51:45.375Z,15.40
2023-05-08T09:52:45.355Z,15.85
2023-05-08T09:53:45.407Z,16.81
2023-05-08T09:54:45.413Z,16.63
2023-05-08T09:55:45.440Z,18.34
2023-05-08T09:56:45.421Z,17.83
2023-05-08T09:57:45.464Z,18.09
2023-05-08T09:58:45.478Z,19.64
2023-05-08T09:59:45.515Z,19.08
2023-05-08T10:00:45.632Z,18.16
2023-05-08T10:01:45.555Z,19.16
2023-05-08T10:02:45.607Z,19.60
2023-05-08T10:03:45.637Z,20.07
2023-05-08T10:04:45.647Z,19.82
2023-05-08T10:05:45.729Z,20.57
2023-05-08T10:06:46.714Z,19.71
2023-05-08T10:07:45.749Z,20.96
2023-05-08T10:08:45.835Z,20.30
2023-05-08T10:09:50.731Z,20.19
2023-05-08T10:10:46.956Z,19.81
2023-05-08T10:11:46.182Z,18.10
2023-05-08T10:12:46.800Z,17.26
2023-05-08T10:13:46.012Z,18.39
2023-05-08T10:14:46.923Z,19.06
2023-05-08T10:15:46.055Z,18.15
2023-05-08T10:16:46.137Z,19.55
2023-05-08T10:17:46.085Z,19.15
2023-05-08T10:18:46.056Z,18.86
2023-05-08T10:19:46.075Z,18.99
2023-05-08T10:20:46.128Z,19.39
2023-05-08T10:21:46.198Z,21.10
2023-05-08T10:22:46.182Z,20.99
2023-05-08T10:23:46.243Z,20.41
2023-05-08T10:24:46.302Z,20.72
2023-05-08T10:25:46.379Z,21.15
2023-05-08T10:26:57.390Z,20.69
2023-05-08T10:27:47.416Z,20.74
2023-05-08T10:28:46.454Z,20.84
2023-05-08T10:29:46.438Z,17.34
2023-05-08T10:30:46.490Z,15.97
2023-05-08T10:31:46.481Z,17.97
2023-05-08T10:32:46.599Z,17.50
2023-05-08T10:33:46.538Z,18.55
2023-05-08T10:34:46.580Z,18.99
2023-05-08T10:35:46.530Z,19.37
2023-05-08T10:36:46.727Z,19.84
2023-05-08T10:37:46.640Z,19.56
2023-05-08T10:38:46.667Z,17.93
2023-05-08T10:39:46.712Z,19.01
2023-05-08T10:40:46.794Z,18.90
2023-05-08T10:41:46.791Z,19.81
2023-05-08T10:42:46.868Z,14.97
2023-05-08T10:43:46.893Z,14.47
2023-05-08T10:44:46.958Z,15.08
2023-05-08T10:45:47.025Z,12.99
2023-05-08T10:46:47.291Z,9.45
2023-05-08T10:47:47.157Z,8.55
2023-05-08T10:48:47.224Z,7.11
2023-05-08T10:49:47.227Z,5.44
2023-05-08T10:50:47.252Z,4.77
2023-05-08T10:51:47.326Z,4.15
2023-05-08T10:52:47.372Z,3.78
2023-05-08T10:53:47.453Z,3.48
2023-05-08T10:54:47.526Z,3.34
2023-05-08T10:55:47.604Z,3.01
2023-05-08T10:56:47.675Z,2.76
2023-05-08T10:57:47.741Z,2.90
2023-05-08T10:58:47.817Z,3.60
2023-05-08T10:59:47.915Z,3.29
2023-05-08T11:00:47.972Z,3.06
2023-05-08T11:01:48.128Z,2.90
2023-05-08T11:02:48.206Z,2.66
2023-05-08T11:03:48.269Z,2.62
2023-05-08T11:04:48.320Z,2.67
2023-05-08T11:05:48.323Z,2.65
2023-05-08T11:06:49.430Z,2.53
2023-05-08T11:07:48.426Z,2.37
2023-05-08T11:08:50.219Z,2.31
2023-05-08T11:09:48.557Z,2.21
2023-05-08T11:10:48.591Z,2.12
2023-05-08T11:11:48.637Z,2.14
2023-05-08T11:12:48.732Z,1.99
2023-05-08T11:13:48.749Z,1.86
2023-05-08T11:14:48.837Z,1.80
2023-05-08T11:15:48.903Z,1.77
2023-05-08T11:16:48.920Z,1.84
2023-05-08T11:17:49.272Z,2.17
2023-05-08T11:18:49.855Z,2.28
2023-05-08T11:19:49.034Z,2.53
2023-05-08T11:20:49.130Z,2.24
2023-05-08T11:21:49.139Z,1.77
2023-05-08T11:22:49.216Z,1.73
2023-05-08T11:23:49.287Z,1.64
2023-05-08T11:24:49.303Z,1.56
2023-05-08T11:25:49.365Z,1.54
2023-05-08T11:26:49.413Z,1.92
2023-05-08T11:27:49.748Z,1.77
2023-05-08T11:28:49.534Z,1.88
2023-05-08T11:29:49.654Z,1.99
2023-05-08T11:30:49.710Z,2.07
2023-05-08T11:31:49.869Z,1.90
2023-05-08T11:32:50.300Z,1.73
2023-05-08T11:33:49.913Z,1.84
2023-05-08T11:34:50.058Z,2.42
2023-05-08T11:35:50.109Z,2.01
2023-05-08T11:36:50.114Z,2.07
2023-05-08T11:37:50.214Z,2.12
2023-05-08T11:38:50.292Z,2.05
2023-05-08T11:39:50.395Z,1.82
2023-05-08T11:40:50.451Z,1.41
2023-05-08T11:41:50.508Z,1.35
2023-05-08T11:42:50.564Z,1.28
2023-05-08T11:43:50.615Z,1.24
2023-05-08T11:44:50.674Z,1.25
2023-05-08T11:45:50.743Z,1.48
2023-05-08T11:46:50.835Z,1.81
2023-05-08T11:47:50.860Z,1.63
2023-05-08T11:48:50.852Z,1.64
2023-05-08T11:49:50.922Z,1.85
2023-05-08T11:50:50.976Z,1.76
2023-05-08T11:51:51.036Z,1.50
2023-05-08T11:52:51.083Z,1.29
2023-05-08T11:53:51.128Z,1.42
2023-05-08T11:54:51.201Z,1.72
2023-05-08T11:55:51.231Z,1.42
2023-05-08T11:56:51.266Z,1.24
2023-05-08T11:57:51.339Z,1.39
2023-05-08T11:58:51.401Z,1.77
2023-05-08T11:59:51.415Z,2.04
2023-05-08T12:00:51.488Z,2.28
2023-05-08T12:02:51.626Z,2.16
2023-05-08T12:03:51.635Z,2.23
2023-05-08T12:04:51.636Z,2.08
2023-05-08T12:05:51.627Z,1.66
2023-05-08T12:06:51.704Z,1.23
2023-05-08T12:07:51.659Z,1.00
2023-05-08T12:08:51.682Z,1.02
2023-05-08T12:09:51.716Z,1.47
2023-05-08T12:10:51.719Z,1.06
2023-05-08T12:11:51.747Z,1.03
2023-05-08T12:12:51.787Z,1.35
2023-05-08T12:13:51.806Z,1.74
2023-05-08T12:14:51.869Z,2.27
2023-05-08T12:15:51.861Z,2.31
2023-05-08T12:16:51.904Z,2.36
2023-05-08T12:17:51.896Z,2.32
2023-05-08T12:18:51.884Z,2.71
2023-05-08T12:19:51.917Z,2.67
2023-05-08T12:20:51.924Z,2.89
2023-05-08T12:21:51.953Z,2.93
2023-05-08T12:22:52.018Z,3.10
2023-05-08T12:23:51.972Z,3.30
2023-05-08T12:24:51.973Z,3.41
2023-05-08T12:25:53.175Z,3.41
2023-05-08T12:26:52.025Z,3.42
2023-05-08T12:27:52.050Z,3.44
2023-05-08T12:28:52.095Z,3.53
2023-05-08T12:29:52.043Z,3.75
2023-05-08T12:30:52.166Z,4.37
2023-05-08T12:31:52.098Z,4.32
2023-05-08T12:32:52.196Z,3.91
2023-05-08T12:33:52.152Z,4.11
2023-05-08T12:34:52.163Z,4.01
2023-05-08T12:35:52.184Z,3.93
2023-05-08T12:36:52.220Z,3.41
2023-05-08T12:37:52.227Z,3.68
2023-05-08T12:38:52.232Z,3.79
2023-05-08T12:39:52.247Z,3.65
2023-05-08T12:40:52.435Z,3.90
2023-05-08T12:41:52.278Z,3.70
2023-05-08T12:42:52.268Z,3.89
2023-05-08T12:43:52.292Z,3.86
2023-05-08T12:44:52.308Z,3.96
2023-05-08T12:45:52.316Z,4.21
2023-05-08T12:46:52.397Z,4.06
2023-05-08T12:47:52.395Z,3.80
2023-05-08T12:48:52.427Z,3.92
2023-05-08T12:49:52.403Z,3.55
2023-05-08T12:50:52.427Z,4.12
2023-05-08T12:51:52.421Z,3.96
2023-05-08T12:52:52.436Z,3.80
2023-05-08T12:53:52.456Z,3.40
2023-05-08T12:54:52.469Z,3.30
2023-05-08T12:55:52.501Z,3.57
2023-05-08T12:56:52.587Z,3.86
2023-05-08T12:57:52.521Z,3.46
2023-05-08T12:58:52.562Z,3.12
2023-05-08T12:59:52.562Z,3.12
2023-05-08T13:00:52.547Z,2.76
2023-05-08T13:01:52.706Z,2.21
2023-05-08T13:02:52.696Z,2.55
2023-05-08T13:04:01.697Z,2.53
2023-05-08T13:04:53.740Z,2.54
2023-05-08T13:05:52.670Z,2.53
2023-05-08T13:06:52.675Z,2.35